sensor_id;sensor_type;location;lat;lon;timestamp;temperature;humidity
17053;DHT22;8643;48.824;11.422;2023-07-24T00:00:05;17.70;99.90
17053;DHT22;8643;48.824;11.422;2023-07-24T00:05:04;17.80;99.90
17053;DHT22;8643;48.824;11.422;2023-07-24T00:10:06;17.80;99.90
17053;DHT22;8643;48.824;11.422;2023-07-24T00:17:34;18.00;99.90
17053;DHT22;8643;48.824;11.422;2023-07-24T00:20:03;18.00;99.90
17053;DHT22;8643;48.824;11.422;2023-07-24T00:25:02;18.00;99.90
17053;DHT22;8643;48.824;11.422;2023-07-24T00:30:01;18.10;99.90
17053;DHT22;8643;48.824;11.422;2023-07-24T00:32:30;18.20;99.90
17053;DHT22;8643;48.824;11.422;2023-07-24T00:34:58;18.30;99.90
17053;DHT22;8643;48.824;11.422;2023-07-24T00:37:27;18.30;99.90
17053;DHT22;8643;48.824;11.422;2023-07-24T00:39:55;18.10;99.90
17053;DHT22;8643;48.824;11.422;2023-07-24T00:44:56;18.10;99.90
17053;DHT22;8643;48.824;11.422;2023-07-24T00:47:25;18.00;99.90
17053;DHT22;8643;48.824;11.422;2023-07-24T00:49:55;18.00;99.90
17053;DHT22;8643;48.824;11.422;2023-07-24T00:52:25;17.90;99.90
17053;DHT22;8643;48.824;11.422;2023-07-24T00:54:53;17.90;99.90
17053;DHT22;8643;48.824;11.422;2023-07-24T00:57:24;17.90;99.90
17053;DHT22;8643;48.824;11.422;2023-07-24T01:04:52;17.90;99.90
17053;DHT22;8643;48.824;11.422;2023-07-24T01:07:20;18.00;99.90
17053;DHT22;8643;48.824;11.422;2023-07-24T01:12:22;18.10;99.90
17053;DHT22;8643;48.824;11.422;2023-07-24T01:15:06;18.10;99.90
17053;DHT22;8643;48.824;11.422;2023-07-24T01:17:41;18.10;99.90
17053;DHT22;8643;48.824;11.422;2023-07-24T01:20:16;18.10;99.90
17053;DHT22;8643;48.824;11.422;2023-07-24T01:25:31;18.20;99.90
17053;DHT22;8643;48.824;11.422;2023-07-24T01:28:08;18.40;99.90
17053;DHT22;8643;48.824;11.422;2023-07-24T01:30:37;18.60;99.90
17053;DHT22;8643;48.824;11.422;2023-07-24T01:33:06;18.60;99.90
17053;DHT22;8643;48.824;11.422;2023-07-24T01:35:35;18.70;99.90
17053;DHT22;8643;48.824;11.422;2023-07-24T01:38:04;18.80;99.90
17053;DHT22;8643;48.824;11.422;2023-07-24T01:40:33;18.70;99.90
17053;DHT22;8643;48.824;11.422;2023-07-24T01:43:02;18.80;99.90
17053;DHT22;8643;48.824;11.422;2023-07-24T01:45:31;18.90;99.90
17053;DHT22;8643;48.824;11.422;2023-07-24T01:50:29;18.90;99.90
17053;DHT22;8643;48.824;11.422;2023-07-24T01:52:58;19.00;99.90
17053;DHT22;8643;48.824;11.422;2023-07-24T01:55:26;19.00;99.90
17053;DHT22;8643;48.824;11.422;2023-07-24T01:57:55;19.00;99.90
17053;DHT22;8643;48.824;11.422;2023-07-24T02:00:23;18.90;99.90
17053;DHT22;8643;48.824;11.422;2023-07-24T02:02:59;19.00;99.90
17053;DHT22;8643;48.824;11.422;2023-07-24T02:07:57;18.90;99.90
17053;DHT22;8643;48.824;11.422;2023-07-24T02:12:54;18.90;99.90
17053;DHT22;8643;48.824;11.422;2023-07-24T02:15:22;18.80;99.90
17053;DHT22;8643;48.824;11.422;2023-07-24T02:17:51;18.70;99.90
17053;DHT22;8643;48.824;11.422;2023-07-24T02:20:20;18.70;99.90
17053;DHT22;8643;48.824;11.422;2023-07-24T02:22:49;18.70;99.90
17053;DHT22;8643;48.824;11.422;2023-07-24T02:25:18;18.70;99.90
17053;DHT22;8643;48.824;11.422;2023-07-24T02:30:15;18.60;99.90
17053;DHT22;8643;48.824;11.422;2023-07-24T02:32:44;18.60;99.90
17053;DHT22;8643;48.824;11.422;2023-07-24T02:35:14;18.60;99.90
17053;DHT22;8643;48.824;11.422;2023-07-24T02:37:47;18.50;99.90
17053;DHT22;8643;48.824;11.422;2023-07-24T02:40:15;18.30;99.90
17053;DHT22;8643;48.824;11.422;2023-07-24T02:55:10;17.80;99.90
17053;DHT22;8643;48.824;11.422;2023-07-24T02:57:38;17.80;99.90
17053;DHT22;8643;48.824;11.422;2023-07-24T03:00:08;17.80;99.90
17053;DHT22;8643;48.824;11.422;2023-07-24T03:02:37;17.80;99.90
17053;DHT22;8643;48.824;11.422;2023-07-24T03:07:36;17.80;99.90
17053;DHT22;8643;48.824;11.422;2023-07-24T03:10:05;17.80;99.90
17053;DHT22;8643;48.824;11.422;2023-07-24T03:15:06;18.00;99.90
17053;DHT22;8643;48.824;11.422;2023-07-24T03:17:35;18.00;99.90
17053;DHT22;8643;48.824;11.422;2023-07-24T03:25:10;18.10;99.90
17053;DHT22;8643;48.824;11.422;2023-07-24T03:27:41;18.00;99.90
17053;DHT22;8643;48.824;11.422;2023-07-24T03:30:10;17.70;99.90
17053;DHT22;8643;48.824;11.422;2023-07-24T03:32:38;17.20;99.90
17053;DHT22;8643;48.824;11.422;2023-07-24T03:35:08;16.80;99.90
17053;DHT22;8643;48.824;11.422;2023-07-24T03:37:36;16.60;99.90
17053;DHT22;8643;48.824;11.422;2023-07-24T03:40:05;16.30;99.90
17053;DHT22;8643;48.824;11.422;2023-07-24T03:45:07;16.00;99.90
17053;DHT22;8643;48.824;11.422;2023-07-24T03:50:09;15.80;99.90
17053;DHT22;8643;48.824;11.422;2023-07-24T03:52:37;15.80;99.90
17053;DHT22;8643;48.824;11.422;2023-07-24T04:00:08;15.80;99.90
17053;DHT22;8643;48.824;11.422;2023-07-24T04:02:38;15.80;99.90
17053;DHT22;8643;48.824;11.422;2023-07-24T04:07:35;15.70;99.90
17053;DHT22;8643;48.824;11.422;2023-07-24T04:10:06;15.70;99.90
17053;DHT22;8643;48.824;11.422;2023-07-24T04:12:35;15.70;99.90
17053;DHT22;8643;48.824;11.422;2023-07-24T04:17:35;15.80;99.90
17053;DHT22;8643;48.824;11.422;2023-07-24T04:20:06;15.80;99.90
17053;DHT22;8643;48.824;11.422;2023-07-24T04:25:05;15.80;99.90
17053;DHT22;8643;48.824;11.422;2023-07-24T04:27:34;15.80;99.90
17053;DHT22;8643;48.824;11.422;2023-07-24T04:32:33;15.90;99.90
17053;DHT22;8643;48.824;11.422;2023-07-24T04:35:01;15.90;99.90
17053;DHT22;8643;48.824;11.422;2023-07-24T04:37:30;15.90;99.90
17053;DHT22;8643;48.824;11.422;2023-07-24T04:39:59;15.80;99.90
17053;DHT22;8643;48.824;11.422;2023-07-24T04:44:56;15.90;99.90
17053;DHT22;8643;48.824;11.422;2023-07-24T04:47:24;15.90;99.90
17053;DHT22;8643;48.824;11.422;2023-07-24T04:49:54;16.00;99.90
17053;DHT22;8643;48.824;11.422;2023-07-24T04:52:23;16.10;99.90
17053;DHT22;8643;48.824;11.422;2023-07-24T04:54:51;16.10;99.90
17053;DHT22;8643;48.824;11.422;2023-07-24T04:57:20;16.10;99.90
17053;DHT22;8643;48.824;11.422;2023-07-24T04:59:48;16.20;99.90
17053;DHT22;8643;48.824;11.422;2023-07-24T05:04:45;16.30;99.90
17053;DHT22;8643;48.824;11.422;2023-07-24T05:07:15;16.30;99.90
17053;DHT22;8643;48.824;11.422;2023-07-24T05:12:13;16.30;99.90
17053;DHT22;8643;48.824;11.422;2023-07-24T05:14:42;16.30;99.90
17053;DHT22;8643;48.824;11.422;2023-07-24T05:19:39;16.30;99.90
17053;DHT22;8643;48.824;11.422;2023-07-24T05:24:38;16.40;99.90
17053;DHT22;8643;48.824;11.422;2023-07-24T05:27:07;16.60;99.90
17053;DHT22;8643;48.824;11.422;2023-07-24T05:32:04;16.90;99.90
17053;DHT22;8643;48.824;11.422;2023-07-24T05:34:33;16.90;99.90
17053;DHT22;8643;48.824;11.422;2023-07-24T05:37:02;17.10;99.90
17053;DHT22;8643;48.824;11.422;2023-07-24T05:39:31;17.10;99.90
17053;DHT22;8643;48.824;11.422;2023-07-24T05:42:01;17.20;99.90
17053;DHT22;8643;48.824;11.422;2023-07-24T05:44:30;17.30;99.90
17053;DHT22;8643;48.824;11.422;2023-07-24T05:51:57;17.50;99.90
17053;DHT22;8643;48.824;11.422;2023-07-24T05:54:25;17.60;99.90
17053;DHT22;8643;48.824;11.422;2023-07-24T05:56:54;17.60;99.90
17053;DHT22;8643;48.824;11.422;2023-07-24T05:59:24;17.60;99.90
17053;DHT22;8643;48.824;11.422;2023-07-24T06:01:52;17.60;99.90
17053;DHT22;8643;48.824;11.422;2023-07-24T06:06:50;17.80;99.90
17053;DHT22;8643;48.824;11.422;2023-07-24T06:09:18;18.00;99.90
17053;DHT22;8643;48.824;11.422;2023-07-24T06:14:16;18.60;99.90
17053;DHT22;8643;48.824;11.422;2023-07-24T06:16:46;18.90;99.90
17053;DHT22;8643;48.824;11.422;2023-07-24T06:19:15;19.10;99.90
17053;DHT22;8643;48.824;11.422;2023-07-24T06:21:44;19.10;99.90
17053;DHT22;8643;48.824;11.422;2023-07-24T06:24:12;19.00;99.90
17053;DHT22;8643;48.824;11.422;2023-07-24T06:26:41;19.00;99.90
17053;DHT22;8643;48.824;11.422;2023-07-24T06:29:09;18.90;99.90
17053;DHT22;8643;48.824;11.422;2023-07-24T06:31:37;18.70;99.90
17053;DHT22;8643;48.824;11.422;2023-07-24T06:34:07;18.60;99.90
17053;DHT22;8643;48.824;11.422;2023-07-24T06:39:05;18.10;99.90
17053;DHT22;8643;48.824;11.422;2023-07-24T06:41:34;18.00;99.90
17053;DHT22;8643;48.824;11.422;2023-07-24T06:44:03;18.00;99.90
17053;DHT22;8643;48.824;11.422;2023-07-24T06:46:31;17.90;99.90
17053;DHT22;8643;48.824;11.422;2023-07-24T06:51:30;17.70;99.90
17053;DHT22;8643;48.824;11.422;2023-07-24T06:58:57;17.70;99.90
17053;DHT22;8643;48.824;11.422;2023-07-24T07:03:54;17.40;99.90
17053;DHT22;8643;48.824;11.422;2023-07-24T07:06:22;17.50;99.90
17053;DHT22;8643;48.824;11.422;2023-07-24T07:11:24;17.70;99.90
17053;DHT22;8643;48.824;11.422;2023-07-24T07:13:53;17.70;99.90
17053;DHT22;8643;48.824;11.422;2023-07-24T07:16:21;17.50;99.90
17053;DHT22;8643;48.824;11.422;2023-07-24T07:18:50;17.40;99.90
17053;DHT22;8643;48.824;11.422;2023-07-24T07:21:20;17.40;99.90
17053;DHT22;8643;48.824;11.422;2023-07-24T07:23:49;17.30;99.90
17053;DHT22;8643;48.824;11.422;2023-07-24T07:26:19;17.30;99.90
17053;DHT22;8643;48.824;11.422;2023-07-24T07:28:47;17.30;99.90
17053;DHT22;8643;48.824;11.422;2023-07-24T07:31:16;17.30;99.90
17053;DHT22;8643;48.824;11.422;2023-07-24T07:33:44;17.30;99.90
17053;DHT22;8643;48.824;11.422;2023-07-24T07:36:13;17.30;99.90
17053;DHT22;8643;48.824;11.422;2023-07-24T07:41:10;17.40;99.90
17053;DHT22;8643;48.824;11.422;2023-07-24T07:43:40;17.50;99.90
17053;DHT22;8643;48.824;11.422;2023-07-24T07:53:36;17.60;99.90
17053;DHT22;8643;48.824;11.422;2023-07-24T07:56:05;17.70;99.90
17053;DHT22;8643;48.824;11.422;2023-07-24T07:58:36;17.70;99.90
17053;DHT22;8643;48.824;11.422;2023-07-24T08:01:06;17.80;99.90
17053;DHT22;8643;48.824;11.422;2023-07-24T08:03:35;17.90;99.90
17053;DHT22;8643;48.824;11.422;2023-07-24T08:06:03;17.90;99.90
17053;DHT22;8643;48.824;11.422;2023-07-24T08:08:33;17.90;99.90
17053;DHT22;8643;48.824;11.422;2023-07-24T08:13:33;17.90;99.90
17053;DHT22;8643;48.824;11.422;2023-07-24T08:16:01;17.80;99.90
17053;DHT22;8643;48.824;11.422;2023-07-24T08:18:31;17.80;99.90
17053;DHT22;8643;48.824;11.422;2023-07-24T08:21:00;17.80;99.90
17053;DHT22;8643;48.824;11.422;2023-07-24T08:28:26;17.90;99.90
17053;DHT22;8643;48.824;11.422;2023-07-24T08:41:05;17.90;99.90
17053;DHT22;8643;48.824;11.422;2023-07-24T08:46:06;17.90;99.90
17053;DHT22;8643;48.824;11.422;2023-07-24T08:48:38;17.90;99.90
17053;DHT22;8643;48.824;11.422;2023-07-24T08:51:08;17.90;99.90
17053;DHT22;8643;48.824;11.422;2023-07-24T08:53:39;18.00;99.90
17053;DHT22;8643;48.824;11.422;2023-07-24T08:56:09;18.10;99.90
17053;DHT22;8643;48.824;11.422;2023-07-24T09:03:38;18.60;99.90
17053;DHT22;8643;48.824;11.422;2023-07-24T09:06:07;18.70;99.90
17053;DHT22;8643;48.824;11.422;2023-07-24T09:08:37;18.90;99.90
17053;DHT22;8643;48.824;11.422;2023-07-24T09:11:07;19.10;99.90
17053;DHT22;8643;48.824;11.422;2023-07-24T09:13:42;19.30;99.90
17053;DHT22;8643;48.824;11.422;2023-07-24T09:18:52;19.90;99.90
17053;DHT22;8643;48.824;11.422;2023-07-24T09:21:29;20.20;99.90
17053;DHT22;8643;48.824;11.422;2023-07-24T09:24:09;20.50;99.90
17053;DHT22;8643;48.824;11.422;2023-07-24T09:26:57;20.60;99.90
17053;DHT22;8643;48.824;11.422;2023-07-24T09:29:31;20.90;99.90
17053;DHT22;8643;48.824;11.422;2023-07-24T09:32:00;21.30;99.90
17053;DHT22;8643;48.824;11.422;2023-07-24T09:34:31;21.80;99.90
17053;DHT22;8643;48.824;11.422;2023-07-24T09:37:00;22.50;99.90
17053;DHT22;8643;48.824;11.422;2023-07-24T09:39:28;22.80;99.90
17053;DHT22;8643;48.824;11.422;2023-07-24T09:44:32;23.60;99.90
17053;DHT22;8643;48.824;11.422;2023-07-24T09:47:01;24.10;99.90
17053;DHT22;8643;48.824;11.422;2023-07-24T09:49:52;24.50;99.90
17053;DHT22;8643;48.824;11.422;2023-07-24T09:52:21;24.60;99.90
17053;DHT22;8643;48.824;11.422;2023-07-24T09:55:04;24.70;99.90
17053;DHT22;8643;48.824;11.422;2023-07-24T09:57:39;24.80;99.90
17053;DHT22;8643;48.824;11.422;2023-07-24T10:00:09;24.80;99.90
17053;DHT22;8643;48.824;11.422;2023-07-24T10:02:41;25.00;99.90
17053;DHT22;8643;48.824;11.422;2023-07-24T10:05:12;25.10;99.90
17053;DHT22;8643;48.824;11.422;2023-07-24T10:10:13;25.60;99.90
17053;DHT22;8643;48.824;11.422;2023-07-24T10:17:41;25.30;99.90
17053;DHT22;8643;48.824;11.422;2023-07-24T10:20:12;25.10;99.90
17053;DHT22;8643;48.824;11.422;2023-07-24T10:22:41;25.20;99.90
17053;DHT22;8643;48.824;11.422;2023-07-24T10:25:12;25.00;99.90
17053;DHT22;8643;48.824;11.422;2023-07-24T10:27:42;24.70;99.90
17053;DHT22;8643;48.824;11.422;2023-07-24T10:30:14;25.00;99.90
17053;DHT22;8643;48.824;11.422;2023-07-24T10:35:39;26.20;99.90
17053;DHT22;8643;48.824;11.422;2023-07-24T10:38:13;25.80;99.90
17053;DHT22;8643;48.824;11.422;2023-07-24T10:40:45;25.30;99.90
17053;DHT22;8643;48.824;11.422;2023-07-24T10:45:50;24.90;99.90
17053;DHT22;8643;48.824;11.422;2023-07-24T10:48:24;25.10;99.10
17053;DHT22;8643;48.824;11.422;2023-07-24T10:50:54;25.10;99.30
17053;DHT22;8643;48.824;11.422;2023-07-24T10:55:53;24.60;99.90
17053;DHT22;8643;48.824;11.422;2023-07-24T10:58:25;24.40;99.80
17053;DHT22;8643;48.824;11.422;2023-07-24T11:00:55;24.20;99.90
17053;DHT22;8643;48.824;11.422;2023-07-24T11:05:57;24.00;99.90
17053;DHT22;8643;48.824;11.422;2023-07-24T11:08:29;24.00;99.90
17053;DHT22;8643;48.824;11.422;2023-07-24T11:10:59;23.90;99.90
17053;DHT22;8643;48.824;11.422;2023-07-24T11:13:30;24.10;99.90
17053;DHT22;8643;48.824;11.422;2023-07-24T11:16:04;24.30;99.90
17053;DHT22;8643;48.824;11.422;2023-07-24T11:21:22;24.20;99.90
17053;DHT22;8643;48.824;11.422;2023-07-24T11:23:52;24.00;99.90
17053;DHT22;8643;48.824;11.422;2023-07-24T11:26:23;23.90;99.90
17053;DHT22;8643;48.824;11.422;2023-07-24T11:31:22;23.50;99.90
17053;DHT22;8643;48.824;11.422;2023-07-24T11:33:53;23.30;99.90
17053;DHT22;8643;48.824;11.422;2023-07-24T11:36:25;23.30;99.90
17053;DHT22;8643;48.824;11.422;2023-07-24T11:41:26;23.10;99.90
17053;DHT22;8643;48.824;11.422;2023-07-24T11:48:56;22.80;99.90
17053;DHT22;8643;48.824;11.422;2023-07-24T11:51:27;22.50;99.90
17053;DHT22;8643;48.824;11.422;2023-07-24T11:54:05;22.60;99.90
17053;DHT22;8643;48.824;11.422;2023-07-24T11:59:11;22.70;99.90
17053;DHT22;8643;48.824;11.422;2023-07-24T12:01:39;22.80;99.90
17053;DHT22;8643;48.824;11.422;2023-07-24T12:04:08;22.80;99.90
17053;DHT22;8643;48.824;11.422;2023-07-24T12:11:41;22.60;99.90
17053;DHT22;8643;48.824;11.422;2023-07-24T12:14:13;22.60;99.90
17053;DHT22;8643;48.824;11.422;2023-07-24T12:16:42;22.50;99.90
17053;DHT22;8643;48.824;11.422;2023-07-24T12:19:11;22.20;99.90
17053;DHT22;8643;48.824;11.422;2023-07-24T12:21:40;21.60;99.90
17053;DHT22;8643;48.824;11.422;2023-07-24T12:24:09;20.90;99.90
17053;DHT22;8643;48.824;11.422;2023-07-24T12:29:06;20.30;99.90
17053;DHT22;8643;48.824;11.422;2023-07-24T12:31:35;20.10;99.90
17053;DHT22;8643;48.824;11.422;2023-07-24T12:34:03;19.90;99.90
17053;DHT22;8643;48.824;11.422;2023-07-24T12:36:32;19.60;99.90
17053;DHT22;8643;48.824;11.422;2023-07-24T12:39:02;19.40;99.90
17053;DHT22;8643;48.824;11.422;2023-07-24T12:44:00;19.10;99.90
17053;DHT22;8643;48.824;11.422;2023-07-24T12:46:28;19.00;99.90
17053;DHT22;8643;48.824;11.422;2023-07-24T12:48:57;18.70;99.90
17053;DHT22;8643;48.824;11.422;2023-07-24T12:53:55;18.50;99.90
17053;DHT22;8643;48.824;11.422;2023-07-24T12:56:44;18.50;99.90
17053;DHT22;8643;48.824;11.422;2023-07-24T12:59:14;18.00;99.90
17053;DHT22;8643;48.824;11.422;2023-07-24T13:01:42;18.50;99.90
17053;DHT22;8643;48.824;11.422;2023-07-24T13:04:11;18.70;99.90
17053;DHT22;8643;48.824;11.422;2023-07-24T13:06:40;18.90;99.90
17053;DHT22;8643;48.824;11.422;2023-07-24T13:09:08;19.20;99.90
17053;DHT22;8643;48.824;11.422;2023-07-24T13:14:07;19.40;99.90
17053;DHT22;8643;48.824;11.422;2023-07-24T13:16:35;19.60;99.90
17053;DHT22;8643;48.824;11.422;2023-07-24T13:19:04;19.70;99.90
17053;DHT22;8643;48.824;11.422;2023-07-24T13:21:32;19.70;99.90
17053;DHT22;8643;48.824;11.422;2023-07-24T13:26:29;20.00;99.90
17053;DHT22;8643;48.824;11.422;2023-07-24T13:31:28;20.40;99.90
17053;DHT22;8643;48.824;11.422;2023-07-24T13:33:59;20.60;99.90
17053;DHT22;8643;48.824;11.422;2023-07-24T13:36:27;20.60;99.90
17053;DHT22;8643;48.824;11.422;2023-07-24T13:41:25;20.70;99.90
17053;DHT22;8643;48.824;11.422;2023-07-24T13:43:54;20.80;99.90
17053;DHT22;8643;48.824;11.422;2023-07-24T13:46:23;20.80;99.90
17053;DHT22;8643;48.824;11.422;2023-07-24T13:48:53;20.90;99.90
17053;DHT22;8643;48.824;11.422;2023-07-24T13:53:51;21.30;99.90
17053;DHT22;8643;48.824;11.422;2023-07-24T13:58:50;21.90;99.90
17053;DHT22;8643;48.824;11.422;2023-07-24T14:01:18;22.00;99.90
17053;DHT22;8643;48.824;11.422;2023-07-24T14:06:17;22.30;99.90
17053;DHT22;8643;48.824;11.422;2023-07-24T14:08:46;22.80;99.90
17053;DHT22;8643;48.824;11.422;2023-07-24T14:11:14;22.80;99.90
17053;DHT22;8643;48.824;11.422;2023-07-24T14:16:13;22.60;99.90
17053;DHT22;8643;48.824;11.422;2023-07-24T14:18:42;22.30;99.90
17053;DHT22;8643;48.824;11.422;2023-07-24T14:23:40;21.70;99.90
17053;DHT22;8643;48.824;11.422;2023-07-24T14:26:09;21.40;99.90
17053;DHT22;8643;48.824;11.422;2023-07-24T14:28:37;21.30;99.90
17053;DHT22;8643;48.824;11.422;2023-07-24T14:31:06;21.30;99.90
17053;DHT22;8643;48.824;11.422;2023-07-24T14:33:34;21.20;99.90
17053;DHT22;8643;48.824;11.422;2023-07-24T14:36:03;21.20;99.90
17053;DHT22;8643;48.824;11.422;2023-07-24T14:38:31;21.00;99.90
17053;DHT22;8643;48.824;11.422;2023-07-24T14:41:01;21.00;99.90
17053;DHT22;8643;48.824;11.422;2023-07-24T14:43:29;20.90;99.90
17053;DHT22;8643;48.824;11.422;2023-07-24T14:45:58;20.80;99.90
17053;DHT22;8643;48.824;11.422;2023-07-24T14:48:26;20.80;99.90
17053;DHT22;8643;48.824;11.422;2023-07-24T14:50:54;20.80;99.90
17053;DHT22;8643;48.824;11.422;2023-07-24T14:55:51;20.50;99.90
17053;DHT22;8643;48.824;11.422;2023-07-24T15:00:53;20.30;99.90
17053;DHT22;8643;48.824;11.422;2023-07-24T15:03:21;19.10;99.90
17053;DHT22;8643;48.824;11.422;2023-07-24T15:05:50;20.20;99.90
17053;DHT22;8643;48.824;11.422;2023-07-24T15:08:19;20.10;99.90
17053;DHT22;8643;48.824;11.422;2023-07-24T15:10:48;20.00;99.90
17053;DHT22;8643;48.824;11.422;2023-07-24T15:13:17;19.90;99.90
17053;DHT22;8643;48.824;11.422;2023-07-24T15:15:46;19.60;99.90
17053;DHT22;8643;48.824;11.422;2023-07-24T15:18:15;19.40;99.90
17053;DHT22;8643;48.824;11.422;2023-07-24T15:30:39;17.90;99.90
17053;DHT22;8643;48.824;11.422;2023-07-24T15:35:38;18.50;99.90
17053;DHT22;8643;48.824;11.422;2023-07-24T15:38:06;18.50;99.90
17053;DHT22;8643;48.824;11.422;2023-07-24T15:43:04;18.60;99.90
17053;DHT22;8643;48.824;11.422;2023-07-24T15:45:33;18.70;99.90
17053;DHT22;8643;48.824;11.422;2023-07-24T15:48:01;18.80;99.90
17053;DHT22;8643;48.824;11.422;2023-07-24T15:53:00;19.10;99.90
17053;DHT22;8643;48.824;11.422;2023-07-24T15:55:28;19.30;99.90
17053;DHT22;8643;48.824;11.422;2023-07-24T15:57:57;19.40;99.90
17053;DHT22;8643;48.824;11.422;2023-07-24T16:00:27;19.40;99.90
17053;DHT22;8643;48.824;11.422;2023-07-24T16:07:54;19.50;99.90
17053;DHT22;8643;48.824;11.422;2023-07-24T16:10:23;19.40;99.90
17053;DHT22;8643;48.824;11.422;2023-07-24T16:17:52;19.10;99.90
17053;DHT22;8643;48.824;11.422;2023-07-24T16:20:23;19.10;99.90
17053;DHT22;8643;48.824;11.422;2023-07-24T16:30:19;19.00;99.90
17053;DHT22;8643;48.824;11.422;2023-07-24T16:40:16;19.10;99.90
17053;DHT22;8643;48.824;11.422;2023-07-24T16:47:53;19.10;99.90
17053;DHT22;8643;48.824;11.422;2023-07-24T16:55:21;19.10;99.90
17053;DHT22;8643;48.824;11.422;2023-07-24T16:57:49;19.20;99.90
17053;DHT22;8643;48.824;11.422;2023-07-24T17:00:18;19.30;99.90
17053;DHT22;8643;48.824;11.422;2023-07-24T17:02:46;19.30;99.90
17053;DHT22;8643;48.824;11.422;2023-07-24T17:05:15;19.50;99.90
17053;DHT22;8643;48.824;11.422;2023-07-24T17:12:44;20.10;99.90
17053;DHT22;8643;48.824;11.422;2023-07-24T17:17:41;20.60;99.90
17053;DHT22;8643;48.824;11.422;2023-07-24T17:20:12;20.70;99.90
17053;DHT22;8643;48.824;11.422;2023-07-24T17:22:40;20.60;99.90
17053;DHT22;8643;48.824;11.422;2023-07-24T17:25:09;20.30;99.90
17053;DHT22;8643;48.824;11.422;2023-07-24T17:32:38;19.90;99.90
17053;DHT22;8643;48.824;11.422;2023-07-24T17:35:08;19.90;99.90
17053;DHT22;8643;48.824;11.422;2023-07-24T17:37:37;19.70;99.90
17053;DHT22;8643;48.824;11.422;2023-07-24T17:40:06;19.60;99.90
17053;DHT22;8643;48.824;11.422;2023-07-24T17:42:36;19.60;99.90
17053;DHT22;8643;48.824;11.422;2023-07-24T17:45:05;19.60;99.90
17053;DHT22;8643;48.824;11.422;2023-07-24T17:47:36;19.60;99.90
17053;DHT22;8643;48.824;11.422;2023-07-24T17:50:05;19.40;99.90
17053;DHT22;8643;48.824;11.422;2023-07-24T18:02:31;19.30;99.90
17053;DHT22;8643;48.824;11.422;2023-07-24T18:09:58;19.40;99.90
17053;DHT22;8643;48.824;11.422;2023-07-24T18:12:27;19.40;99.90
17053;DHT22;8643;48.824;11.422;2023-07-24T18:14:55;19.30;99.90
17053;DHT22;8643;48.824;11.422;2023-07-24T18:17:24;19.30;99.90
17053;DHT22;8643;48.824;11.422;2023-07-24T18:19:52;19.40;99.90
17053;DHT22;8643;48.824;11.422;2023-07-24T18:22:22;19.40;99.90
17053;DHT22;8643;48.824;11.422;2023-07-24T18:24:51;19.40;99.90
17053;DHT22;8643;48.824;11.422;2023-07-24T18:29:48;19.40;99.90
17053;DHT22;8643;48.824;11.422;2023-07-24T18:32:16;19.30;99.90
17053;DHT22;8643;48.824;11.422;2023-07-24T18:39:44;19.30;99.90
17053;DHT22;8643;48.824;11.422;2023-07-24T18:42:13;19.30;99.90
17053;DHT22;8643;48.824;11.422;2023-07-24T18:44:41;19.30;99.90
17053;DHT22;8643;48.824;11.422;2023-07-24T18:52:07;19.30;99.90
17053;DHT22;8643;48.824;11.422;2023-07-24T18:54:35;19.40;99.90
17053;DHT22;8643;48.824;11.422;2023-07-24T18:57:06;19.30;99.90
17053;DHT22;8643;48.824;11.422;2023-07-24T18:59:34;19.20;99.90
17053;DHT22;8643;48.824;11.422;2023-07-24T19:02:04;19.10;99.90
17053;DHT22;8643;48.824;11.422;2023-07-24T19:07:01;19.00;99.90
17053;DHT22;8643;48.824;11.422;2023-07-24T19:11:59;19.00;99.90
17053;DHT22;8643;48.824;11.422;2023-07-24T19:14:29;19.00;99.90
17053;DHT22;8643;48.824;11.422;2023-07-24T19:16:57;18.90;99.90
17053;DHT22;8643;48.824;11.422;2023-07-24T19:24:23;18.80;99.90
17053;DHT22;8643;48.824;11.422;2023-07-24T19:26:52;18.80;99.90
17053;DHT22;8643;48.824;11.422;2023-07-24T19:31:50;18.80;99.90
17053;DHT22;8643;48.824;11.422;2023-07-24T19:36:48;18.80;99.90
17053;DHT22;8643;48.824;11.422;2023-07-24T19:41:45;18.80;99.90
17053;DHT22;8643;48.824;11.422;2023-07-24T19:44:13;18.80;99.90
17053;DHT22;8643;48.824;11.422;2023-07-24T19:46:42;18.70;99.90
17053;DHT22;8643;48.824;11.422;2023-07-24T19:49:12;18.70;99.90
17053;DHT22;8643;48.824;11.422;2023-07-24T19:54:09;18.50;99.90
17053;DHT22;8643;48.824;11.422;2023-07-24T20:01:35;18.50;99.90
17053;DHT22;8643;48.824;11.422;2023-07-24T20:04:04;18.50;99.90
17053;DHT22;8643;48.824;11.422;2023-07-24T20:06:34;18.50;99.90
17053;DHT22;8643;48.824;11.422;2023-07-24T20:14:03;18.60;99.90
17053;DHT22;8643;48.824;11.422;2023-07-24T20:16:31;18.60;99.90
17053;DHT22;8643;48.824;11.422;2023-07-24T20:18:59;18.60;99.90
17053;DHT22;8643;48.824;11.422;2023-07-24T20:24:07;18.60;99.90
17053;DHT22;8643;48.824;11.422;2023-07-24T20:26:36;18.60;99.90
17053;DHT22;8643;48.824;11.422;2023-07-24T20:29:05;18.40;99.90
17053;DHT22;8643;48.824;11.422;2023-07-24T20:31:34;18.40;99.90
17053;DHT22;8643;48.824;11.422;2023-07-24T20:36:30;18.10;99.90
17053;DHT22;8643;48.824;11.422;2023-07-24T20:38:58;18.00;99.90
17053;DHT22;8643;48.824;11.422;2023-07-24T20:41:28;17.90;99.90
17053;DHT22;8643;48.824;11.422;2023-07-24T20:46:25;17.70;99.90
17053;DHT22;8643;48.824;11.422;2023-07-24T20:48:54;17.40;99.90
17053;DHT22;8643;48.824;11.422;2023-07-24T20:53:51;18.20;99.90
17053;DHT22;8643;48.824;11.422;2023-07-24T20:58:52;17.00;99.90
17053;DHT22;8643;48.824;11.422;2023-07-24T21:01:21;16.90;99.90
17053;DHT22;8643;48.824;11.422;2023-07-24T21:03:51;16.90;99.90
17053;DHT22;8643;48.824;11.422;2023-07-24T21:06:19;17.00;99.90
17053;DHT22;8643;48.824;11.422;2023-07-24T21:08:48;17.00;99.90
17053;DHT22;8643;48.824;11.422;2023-07-24T21:13:45;17.00;99.90
17053;DHT22;8643;48.824;11.422;2023-07-24T21:18:44;17.00;99.90
17053;DHT22;8643;48.824;11.422;2023-07-24T21:21:13;17.00;99.90
17053;DHT22;8643;48.824;11.422;2023-07-24T21:31:08;16.70;99.90
17053;DHT22;8643;48.824;11.422;2023-07-24T21:41:07;16.60;99.90
17053;DHT22;8643;48.824;11.422;2023-07-24T21:43:37;16.60;99.90
17053;DHT22;8643;48.824;11.422;2023-07-24T21:46:05;16.50;99.90
17053;DHT22;8643;48.824;11.422;2023-07-24T21:48:34;16.50;99.90
17053;DHT22;8643;48.824;11.422;2023-07-24T21:53:33;16.50;99.90
17053;DHT22;8643;48.824;11.422;2023-07-24T21:56:03;16.40;99.90
17053;DHT22;8643;48.824;11.422;2023-07-24T21:58:32;16.50;99.90
17053;DHT22;8643;48.824;11.422;2023-07-24T22:01:01;16.40;99.90
17053;DHT22;8643;48.824;11.422;2023-07-24T22:08:31;16.30;99.90
17053;DHT22;8643;48.824;11.422;2023-07-24T22:11:08;16.30;99.90
17053;DHT22;8643;48.824;11.422;2023-07-24T22:16:06;16.30;99.90
17053;DHT22;8643;48.824;11.422;2023-07-24T22:21:04;16.30;99.90
17053;DHT22;8643;48.824;11.422;2023-07-24T22:23:34;16.10;99.90